Time;durP1;ratioP1;P1;durP2;ratioP2;P2;SDS_P1;SDS_P2;PMS_P1;PMS_P2;Temp;Humidity;BMP_temperature;BMP_pressure;BME280_temperature;BME280_humidity;BME280_pressure;Samples;Min_cycle;Max_cycle;Signal;HPM_P1;HPM_P2
2022/09/16 00:01:35;;;;;;;4.43;1.60;;;12.10;99.90;;;;;;5034597;28;20203;-60
2022/09/16 00:04:02;;;;;;;5.10;1.87;;;12.10;99.90;;;;;;5034467;28;20210;-59
2022/09/16 00:06:30;;;;;;;6.33;1.57;;;12.10;99.90;;;;;;5034044;28;20231;-59
2022/09/16 00:09:00;;;;;;;3.30;1.40;;;12.10;99.90;;;;;;5034572;28;20264;-61
2022/09/16 00:11:28;;;;;;;2.13;1.33;;;12.10;99.90;;;;;;5034456;28;20232;-60
2022/09/16 00:13:55;;;;;;;3.57;1.50;;;12.10;99.90;;;;;;5034369;28;20680;-58
2022/09/16 00:16:24;;;;;;;5.13;1.50;;;12.10;99.90;;;;;;5033924;28;20270;-61
2022/09/16 00:18:54;;;;;;;8.23;1.37;;;12.10;99.90;;;;;;5034217;28;20206;-60
2022/09/16 00:21:21;;;;;;;7.10;1.40;;;12.10;99.90;;;;;;5034210;28;20295;-59
2022/09/16 00:23:48;;;;;;;6.23;1.60;;;12.10;99.90;;;;;;5034465;28;20230;-60
2022/09/16 00:26:16;;;;;;;3.77;1.40;;;12.10;99.90;;;;;;5033819;28;20287;-60
2022/09/16 00:28:43;;;;;;;3.63;1.30;;;12.10;99.90;;;;;;5034136;28;20259;-60
2022/09/16 00:31:10;;;;;;;7.07;1.73;;;12.10;99.90;;;;;;5033457;28;20234;-57
2022/09/16 00:33:37;;;;;;;3.73;1.40;;;12.10;99.90;;;;;;5033891;28;20715;-57
2022/09/16 00:36:06;;;;;;;5.13;1.50;;;12.10;99.90;;;;;;5033679;28;20233;-60
2022/09/16 00:38:32;;;;;;;4.27;1.50;;;12.10;99.90;;;;;;5033356;28;20703;-60
2022/09/16 00:40:59;;;;;;;4.80;1.70;;;12.10;99.90;;;;;;5033958;28;20279;-60
2022/09/16 00:43:27;;;;;;;7.67;1.50;;;12.10;99.90;;;;;;5033794;28;20286;-57
2022/09/16 00:45:58;;;;;;;5.40;1.70;;;12.20;99.90;;;;;;5033574;28;20870;-57
2022/09/16 00:48:27;;;;;;;3.30;1.50;;;12.20;99.90;;;;;;5033609;28;20208;-60
2022/09/16 00:50:59;;;;;;;4.90;1.50;;;12.20;99.90;;;;;;5033601;28;20209;-58
2022/09/16 00:53:29;;;;;;;6.20;2.13;;;12.20;99.90;;;;;;5033605;28;20208;-58
2022/09/16 00:55:59;;;;;;;4.03;1.67;;;12.10;99.90;;;;;;5033447;28;20761;-57
2022/09/16 00:58:33;;;;;;;3.30;1.53;;;12.20;99.90;;;;;;5033402;28;20260;-57
2022/09/16 01:01:00;;;;;;;4.67;1.47;;;12.10;99.90;;;;;;5033670;28;20256;-59
2022/09/16 01:03:29;;;;;;;6.23;1.80;;;12.10;99.90;;;;;;5033658;28;20260;-60
2022/09/16 01:05:56;;;;;;;3.13;1.50;;;12.10;99.90;;;;;;5033241;28;20237;-56
2022/09/16 01:08:23;;;;;;;2.80;1.27;;;12.10;99.90;;;;;;5033359;28;20692;-58
2022/09/16 01:10:50;;;;;;;9.03;1.77;;;12.10;99.90;;;;;;5033307;28;20263;-57
2022/09/16 01:13:17;;;;;;;3.70;1.53;;;12.10;99.90;;;;;;5032934;28;20249;-60
2022/09/16 01:15:55;;;;;;;5.33;1.40;;;12.00;99.90;;;;;;5033289;28;20262;-60
2022/09/16 01:18:31;;;;;;;2.60;1.30;;;12.00;99.90;;;;;;5033135;28;20749;-61
2022/09/16 01:21:17;;;;;;;2.07;1.27;;;12.00;99.90;;;;;;5033144;28;20264;-58
2022/09/16 01:24:19;;;;;;;5.57;1.67;;;12.00;99.90;;;;;;5032947;28;20206;-58
2022/09/16 01:27:09;;;;;;;1.87;1.40;;;12.00;99.90;;;;;;5032841;28;20230;-58
2022/09/16 01:30:06;;;;;;;6.20;1.40;;;12.00;99.90;;;;;;5032900;28;20203;-59
2022/09/16 01:32:41;;;;;;;9.37;1.67;;;12.00;99.90;;;;;;5032830;28;20230;-58
2022/09/16 01:35:14;;;;;;;5.60;1.80;;;12.00;99.90;;;;;;5032832;28;20343;-56
2022/09/16 01:37:47;;;;;;;4.37;1.60;;;12.00;99.90;;;;;;5032600;28;20252;-60
2022/09/16 01:40:22;;;;;;;6.67;1.57;;;11.90;99.90;;;;;;5032558;28;20211;-60
2022/09/16 01:42:57;;;;;;;9.23;1.50;;;11.90;99.90;;;;;;5032092;28;20616;-60
2022/09/16 01:45:31;;;;;;;3.93;1.60;;;11.90;99.90;;;;;;5032562;28;20276;-56
2022/09/16 01:48:08;;;;;;;6.30;1.77;;;11.90;99.90;;;;;;5032411;28;20692;-60
2022/09/16 01:50:42;;;;;;;5.53;1.47;;;11.90;99.90;;;;;;5032292;28;20208;-58
2022/09/16 01:53:15;;;;;;;3.33;1.27;;;11.90;99.90;;;;;;5032667;28;20234;-57
2022/09/16 01:55:47;;;;;;;4.20;1.70;;;11.90;99.90;;;;;;5032335;28;20277;-61
2022/09/16 01:58:22;;;;;;;3.27;1.40;;;11.90;99.90;;;;;;5032207;28;20212;-58
2022/09/16 02:00:53;;;;;;;4.00;1.13;;;11.90;99.90;;;;;;5032365;28;20289;-60
2022/09/16 02:03:24;;;;;;;5.77;1.40;;;11.90;99.90;;;;;;5032329;28;20254;-58
2022/09/16 02:05:54;;;;;;;4.20;1.10;;;11.90;99.90;;;;;;5032248;28;20222;-60
2022/09/16 02:08:27;;;;;;;4.00;1.40;;;11.90;99.90;;;;;;5032415;28;20222;-59
2022/09/16 02:10:58;;;;;;;3.07;1.20;;;12.00;99.90;;;;;;5032196;28;20269;-57
2022/09/16 02:13:29;;;;;;;3.63;1.20;;;12.00;99.90;;;;;;5032018;28;20280;-57
2022/09/16 02:16:00;;;;;;;4.50;1.13;;;12.00;99.90;;;;;;5031966;28;20233;-55
2022/09/16 02:18:33;;;;;;;2.97;1.67;;;12.00;99.90;;;;;;5032291;28;20238;-57
2022/09/16 02:21:02;;;;;;;7.17;1.40;;;12.00;99.90;;;;;;5032117;28;20212;-53
2022/09/16 02:23:34;;;;;;;4.93;1.47;;;12.00;99.90;;;;;;5032313;28;20213;-53
2022/09/16 02:26:04;;;;;;;3.93;1.30;;;12.00;99.90;;;;;;5031966;28;20226;-60
2022/09/16 02:28:35;;;;;;;9.37;1.60;;;12.00;99.90;;;;;;5035226;28;20624;-60
2022/09/16 02:31:05;;;;;;;5.03;1.50;;;12.00;99.90;;;;;;5035247;28;20644;-60
2022/09/16 02:33:38;;;;;;;5.77;1.80;;;12.10;99.90;;;;;;5031997;28;20777;-60
2022/09/16 02:36:07;;;;;;;6.13;1.63;;;12.00;99.90;;;;;;5031833;28;20261;-60
2022/09/16 02:38:40;;;;;;;8.80;1.60;;;12.00;99.90;;;;;;5031725;28;20206;-60
2022/09/16 02:41:08;;;;;;;6.03;1.80;;;12.00;99.90;;;;;;5032101;28;20212;-60
2022/09/16 02:43:35;;;;;;;6.77;1.80;;;12.00;99.90;;;;;;5031891;28;20220;-60
2022/09/16 02:46:09;;;;;;;4.00;1.70;;;12.00;99.90;;;;;;5031564;28;20652;-60
2022/09/16 02:48:48;;;;;;;7.40;1.63;;;12.00;99.90;;;;;;5031749;28;20278;-61
2022/09/16 02:51:25;;;;;;;4.13;1.60;;;12.00;99.90;;;;;;5031729;28;20224;-60
2022/09/16 02:53:56;;;;;;;3.50;1.43;;;12.00;99.90;;;;;;5033617;28;20720;-60
2022/09/16 02:56:29;;;;;;;3.67;1.53;;;12.00;99.90;;;;;;5035594;28;20660;-60
2022/09/16 02:58:56;;;;;;;7.40;1.90;;;12.00;99.90;;;;;;5035713;28;20566;-59
2022/09/16 03:01:24;;;;;;;2.93;1.50;;;11.90;99.90;;;;;;5035596;28;20212;-59
2022/09/16 03:03:55;;;;;;;3.90;1.50;;;11.90;99.90;;;;;;5035707;28;20207;-60
2022/09/16 03:06:23;;;;;;;4.97;1.70;;;11.90;99.90;;;;;;5035539;28;20232;-60
2022/09/16 03:08:52;;;;;;;4.37;1.47;;;11.90;99.90;;;;;;5035362;28;20211;-60
2022/09/16 03:11:39;;;;;;;6.97;1.40;;;11.90;99.90;;;;;;5035631;28;20633;-60
2022/09/16 03:14:30;;;;;;;6.53;1.37;;;11.90;99.90;;;;;;5028478;28;20260;-61
2022/09/16 03:17:07;;;;;;;5.47;1.27;;;11.90;99.90;;;;;;5034841;28;20230;-60
2022/09/16 03:19:44;;;;;;;4.10;1.60;;;11.90;99.90;;;;;;5035414;28;20288;-61
2022/09/16 03:22:22;;;;;;;4.60;1.43;;;11.80;99.90;;;;;;5035122;28;20210;-62
2022/09/16 03:24:56;;;;;;;4.83;1.30;;;11.80;99.90;;;;;;5035468;28;20202;-61
2022/09/16 03:27:30;;;;;;;5.80;1.60;;;11.80;99.90;;;;;;5035102;28;20271;-60
2022/09/16 03:30:03;;;;;;;3.67;1.60;;;11.80;99.90;;;;;;5035181;28;20298;-61
2022/09/16 03:32:33;;;;;;;6.17;1.80;;;11.80;99.90;;;;;;5034922;28;20226;-61
2022/09/16 03:35:04;;;;;;;2.87;1.53;;;11.80;99.90;;;;;;5035423;28;20211;-61
2022/09/16 03:37:34;;;;;;;4.03;1.70;;;11.80;99.90;;;;;;5034733;28;20206;-60
2022/09/16 03:40:07;;;;;;;5.80;1.60;;;11.80;99.90;;;;;;5035271;28;20207;-60
2022/09/16 03:42:34;;;;;;;2.17;1.40;;;11.80;99.90;;;;;;5035009;28;20272;-60
2022/09/16 03:45:01;;;;;;;3.77;1.50;;;11.80;99.90;;;;;;5034839;28;20209;-60
2022/09/16 03:47:28;;;;;;;5.63;1.57;;;11.70;99.90;;;;;;5034519;28;20220;-60
2022/09/16 03:49:55;;;;;;;7.07;1.50;;;11.70;99.90;;;;;;5034747;28;20741;-61
2022/09/16 03:52:23;;;;;;;7.70;1.70;;;11.70;99.90;;;;;;5034774;28;20231;-61
2022/09/16 03:54:49;;;;;;;6.37;1.50;;;11.70;99.90;;;;;;5034971;28;20210;-60
2022/09/16 03:57:16;;;;;;;3.70;1.50;;;11.70;99.90;;;;;;5034388;28;20284;-60
2022/09/16 03:59:43;;;;;;;3.30;1.63;;;11.80;99.90;;;;;;5034680;28;20207;-61
2022/09/16 04:02:09;;;;;;;9.47;1.73;;;11.70;99.90;;;;;;5034571;28;20211;-61
2022/09/16 04:04:36;;;;;;;3.50;1.70;;;11.70;99.90;;;;;;5033785;28;20202;-61
2022/09/16 04:07:03;;;;;;;3.03;1.90;;;11.70;99.90;;;;;;5034174;28;20230;-61
2022/09/16 04:09:31;;;;;;;7.33;1.70;;;11.70;99.90;;;;;;5034336;28;20691;-61
2022/09/16 04:11:58;;;;;;;5.97;2.37;;;11.70;99.90;;;;;;5034321;28;20259;-61
2022/09/16 04:14:25;;;;;;;5.83;1.80;;;11.60;99.90;;;;;;5034061;28;20217;-62
2022/09/16 04:16:51;;;;;;;7.77;1.73;;;11.60;99.90;;;;;;5033975;28;20441;-60
2022/09/16 04:19:18;;;;;;;3.17;1.87;;;11.60;99.90;;;;;;5034173;28;20273;-61
2022/09/16 04:21:44;;;;;;;4.07;1.80;;;11.70;99.90;;;;;;5034132;28;20703;-61
2022/09/16 04:24:11;;;;;;;5.50;1.80;;;11.60;99.90;;;;;;5034112;28;20198;-61
2022/09/16 04:26:39;;;;;;;3.50;1.80;;;11.60;99.90;;;;;;5033841;28;20226;-61
2022/09/16 04:29:06;;;;;;;3.77;1.93;;;11.60;99.90;;;;;;5033878;28;20250;-61
2022/09/16 04:31:33;;;;;;;6.17;1.90;;;11.60;99.90;;;;;;5034142;28;20619;-61
2022/09/16 04:34:01;;;;;;;3.43;1.63;;;11.70;99.90;;;;;;5033950;28;20226;-61
2022/09/16 04:36:28;;;;;;;3.47;1.70;;;11.70;99.90;;;;;;5033729;28;20226;-61
2022/09/16 04:38:54;;;;;;;6.87;2.10;;;11.60;99.90;;;;;;5034107;28;20215;-60
2022/09/16 04:41:22;;;;;;;6.73;1.97;;;11.60;99.90;;;;;;5034803;28;20207;-61
2022/09/16 04:43:52;;;;;;;6.40;2.00;;;11.70;99.90;;;;;;5050511;28;20202;-61
2022/09/16 04:46:20;;;;;;;4.07;1.67;;;11.60;99.90;;;;;;5033245;28;20233;-61
2022/09/16 04:48:47;;;;;;;2.63;1.60;;;11.60;99.90;;;;;;5033289;28;20206;-61
2022/09/16 04:51:14;;;;;;;6.00;2.33;;;11.60;99.90;;;;;;5033789;28;20210;-61
2022/09/16 04:53:43;;;;;;;10.40;2.13;;;11.60;99.90;;;;;;5033116;28;20230;-61
2022/09/16 04:56:14;;;;;;;7.47;1.90;;;11.60;99.90;;;;;;5032813;28;20238;-62
2022/09/16 04:58:42;;;;;;;8.03;1.67;;;11.60;99.90;;;;;;5033725;28;20573;-60
2022/09/16 05:01:12;;;;;;;3.10;1.60;;;11.60;99.90;;;;;;5032905;28;20209;-60
2022/09/16 05:03:39;;;;;;;4.97;1.60;;;11.70;99.90;;;;;;5033314;28;20211;-63
2022/09/16 05:06:08;;;;;;;6.20;1.87;;;11.60;99.90;;;;;;5032657;28;20232;-60
2022/09/16 05:08:35;;;;;;;8.13;1.90;;;11.60;99.90;;;;;;5033459;28;20202;-60
2022/09/16 05:11:07;;;;;;;5.13;1.67;;;11.60;99.90;;;;;;5034219;28;20211;-64
2022/09/16 05:13:34;;;;;;;6.23;2.37;;;11.60;99.90;;;;;;5033215;28;20288;-62
2022/09/16 05:16:03;;;;;;;4.80;1.77;;;11.70;99.90;;;;;;5032540;28;20288;-61
2022/09/16 05:18:31;;;;;;;11.20;1.90;;;11.60;99.90;;;;;;5032851;28;20318;-60
2022/09/16 05:20:59;;;;;;;6.20;1.80;;;11.60;99.90;;;;;;5032385;28;20262;-61
2022/09/16 05:23:26;;;;;;;9.63;1.53;;;11.70;99.90;;;;;;5032834;28;20209;-61
2022/09/16 05:25:52;;;;;;;5.87;1.80;;;11.70;99.90;;;;;;5032082;28;20282;-61
2022/09/16 05:28:19;;;;;;;7.93;1.73;;;11.70;99.90;;;;;;5029079;28;20278;-60
2022/09/16 05:30:46;;;;;;;6.67;1.90;;;11.70;99.90;;;;;;5048510;28;20202;-62
2022/09/16 05:33:13;;;;;;;1.70;1.40;;;11.70;99.90;;;;;;5046420;28;20218;-59
2022/09/16 05:35:41;;;;;;;3.80;1.40;;;11.80;99.90;;;;;;5031630;28;20604;-60
2022/09/16 05:38:08;;;;;;;5.17;1.40;;;11.70;99.90;;;;;;5031440;28;20630;-61
2022/09/16 05:40:35;;;;;;;8.97;1.60;;;11.70;99.90;;;;;;5047738;28;20203;-61
2022/09/16 05:43:02;;;;;;;3.80;1.80;;;11.70;99.90;;;;;;5051451;28;20206;-61
2022/09/16 05:45:28;;;;;;;7.30;1.93;;;11.70;99.90;;;;;;5051754;28;20285;-60
2022/09/16 05:47:55;;;;;;;5.70;1.63;;;11.70;99.90;;;;;;5051379;28;20212;-62
2022/09/16 05:50:22;;;;;;;7.00;1.80;;;11.60;99.90;;;;;;5051568;28;20288;-60
2022/09/16 05:52:50;;;;;;;8.93;1.83;;;11.60;99.90;;;;;;5052327;28;20779;-62
2022/09/16 05:55:17;;;;;;;6.50;1.63;;;11.60;99.90;;;;;;5052824;28;20228;-63
2022/09/16 05:57:43;;;;;;;6.47;2.40;;;11.50;99.90;;;;;;5052488;28;20243;-62
2022/09/16 06:00:11;;;;;;;4.80;2.00;;;11.60;99.90;;;;;;5051266;28;20210;-62
2022/09/16 06:02:38;;;;;;;6.93;2.07;;;11.50;99.90;;;;;;5051412;28;20217;-62
2022/09/16 06:05:05;;;;;;;5.43;2.07;;;11.50;99.90;;;;;;5051055;28;21080;-62
2022/09/16 06:07:32;;;;;;;5.47;2.10;;;11.60;99.90;;;;;;5051214;28;20240;-62
2022/09/16 06:10:00;;;;;;;11.77;2.40;;;11.60;99.90;;;;;;5051283;28;20255;-62
2022/09/16 06:12:26;;;;;;;8.40;2.60;;;11.70;99.90;;;;;;5051221;28;20688;-62
2022/09/16 06:14:53;;;;;;;6.93;2.13;;;11.70;99.90;;;;;;5051209;28;20227;-60
2022/09/16 06:17:20;;;;;;;6.50;2.87;;;11.80;99.90;;;;;;5050859;28;20208;-62
2022/09/16 06:19:46;;;;;;;8.20;2.70;;;11.90;99.90;;;;;;5050602;28;20231;-60
2022/09/16 06:22:13;;;;;;;6.60;2.43;;;11.90;99.90;;;;;;5050737;28;20251;-61
2022/09/16 06:24:39;;;;;;;7.77;2.47;;;11.90;99.90;;;;;;5051313;28;20259;-62
2022/09/16 06:27:07;;;;;;;7.43;2.23;;;11.90;99.90;;;;;;5050791;28;20227;-62
2022/09/16 06:29:34;;;;;;;6.93;2.43;;;12.00;99.90;;;;;;5050764;28;20212;-62
2022/09/16 06:32:01;;;;;;;9.53;2.67;;;12.00;99.90;;;;;;5050444;28;20216;-61
2022/09/16 06:34:28;;;;;;;7.20;2.53;;;12.10;99.90;;;;;;5051127;28;20643;-62
2022/09/16 06:36:54;;;;;;;7.63;2.40;;;12.10;99.90;;;;;;5050850;28;20321;-64
2022/09/16 06:39:22;;;;;;;5.87;2.30;;;12.10;99.50;;;;;;5050907;28;20218;-63
2022/09/16 06:41:49;;;;;;;11.07;2.60;;;12.10;96.80;;;;;;5050894;28;20686;-61
2022/09/16 06:44:17;;;;;;;8.67;2.67;;;12.10;99.10;;;;;;5050765;28;20197;-62
2022/09/16 06:46:44;;;;;;;4.83;2.10;;;12.20;99.90;;;;;;5050647;28;20256;-62
2022/09/16 06:49:11;;;;;;;5.83;2.73;;;12.20;99.90;;;;;;5050993;28;20201;-61
2022/09/16 06:51:38;;;;;;;5.20;2.20;;;12.20;99.90;;;;;;5050803;28;20679;-66
2022/09/16 06:54:07;;;;;;;8.63;2.37;;;12.30;99.90;;;;;;5050537;28;20225;-66
2022/09/16 06:56:37;;;;;;;8.57;2.60;;;12.30;99.90;;;;;;5050653;28;20228;-65
2022/09/16 06:59:04;;;;;;;4.77;2.33;;;12.50;96.20;;;;;;5050940;28;20585;-62
2022/09/16 07:01:33;;;;;;;7.13;2.67;;;12.50;97.60;;;;;;5050344;28;20669;-62
2022/09/16 07:04:04;;;;;;;7.17;2.37;;;12.50;88.00;;;;;;5051015;28;20202;-62
2022/09/16 07:06:31;;;;;;;4.93;2.43;;;12.50;86.50;;;;;;5050706;28;20221;-62
2022/09/16 07:08:58;;;;;;;13.87;2.80;;;12.60;84.50;;;;;;5051185;28;20300;-62
2022/09/16 07:11:25;;;;;;;5.03;2.30;;;12.50;74.10;;;;;;5050356;28;20213;-63
2022/09/16 07:13:52;;;;;;;6.47;2.60;;;12.60;78.50;;;;;;5051135;28;20232;-62
2022/09/16 07:16:21;;;;;;;9.27;2.93;;;12.60;86.50;;;;;;5050735;28;20230;-62
2022/09/16 07:18:53;;;;;;;7.97;3.20;;;12.70;94.40;;;;;;5051011;28;20210;-62
2022/09/16 07:21:21;;;;;;;5.07;2.73;;;12.80;97.70;;;;;;5050577;28;20629;-63
2022/09/16 07:23:48;;;;;;;6.37;3.17;;;12.90;94.60;;;;;;5050811;28;20587;-63
2022/09/16 07:26:16;;;;;;;5.57;3.37;;;13.00;80.30;;;;;;5050643;28;20228;-63
2022/09/16 07:28:45;;;;;;;9.27;3.60;;;13.20;70.40;;;;;;5050438;28;20214;-62
2022/09/16 07:31:14;;;;;;;6.63;3.23;;;13.20;24.90;;;;;;5050175;28;20205;-62
2022/09/16 07:33:42;;;;;;;7.57;3.13;;;13.30;13.40;;;;;;5050238;28;20217;-63
2022/09/16 07:36:17;;;;;;;9.53;3.73;;;13.20;1.00;;;;;;5050563;28;20221;-62
2022/09/16 07:38:43;;;;;;;11.17;3.73;;;13.20;1.00;;;;;;5050227;28;20755;-62
2022/09/16 07:41:13;;;;;;;7.23;3.30;;;13.00;1.00;;;;;;5052707;28;20208;-62
2022/09/16 07:44:00;;;;;;;6.73;3.60;;;12.90;1.00;;;;;;5053613;28;20708;-62
2022/09/16 07:46:28;;;;;;;9.80;4.07;;;13.00;1.00;;;;;;5048924;28;20229;-64
2022/09/16 07:48:56;;;;;;;6.87;3.73;;;13.00;1.00;;;;;;5053799;28;20734;-64
2022/09/16 07:51:25;;;;;;;10.17;3.80;;;13.00;5.80;;;;;;5053866;28;20213;-60
2022/09/16 07:53:54;;;;;;;8.20;3.97;;;13.00;1.00;;;;;;5054005;28;20256;-62
2022/09/16 07:56:24;;;;;;;6.50;3.87;;;13.10;1.00;;;;;;5053715;28;20228;-61
2022/09/16 07:58:52;;;;;;;8.90;3.87;;;13.30;1.00;;;;;;5054185;28;20201;-61
2022/09/16 08:01:19;;;;;;;8.50;2.97;;;13.40;1.00;;;;;;5053161;28;20668;-62
2022/09/16 08:03:47;;;;;;;10.80;3.80;;;13.30;1.00;;;;;;5053735;28;20213;-62
2022/09/16 08:06:15;;;;;;;6.60;4.20;;;13.30;1.00;;;;;;5053306;28;20234;-63
2022/09/16 08:08:44;;;;;;;15.03;3.80;;;13.40;1.00;;;;;;5053803;28;20209;-63
2022/09/16 08:11:14;;;;;;;7.50;3.47;;;13.60;1.00;;;;;;5052851;28;20888;-62
2022/09/16 08:13:42;;;;;;;6.23;3.00;;;13.70;1.00;;;;;;5053476;28;20228;-62
2022/09/16 08:16:12;;;;;;;7.27;3.03;;;13.70;1.00;;;;;;5053073;28;20226;-63
2022/09/16 08:18:39;;;;;;;4.53;2.83;;;13.50;1.00;;;;;;5053577;28;20212;-63
2022/09/16 08:21:06;;;;;;;4.33;2.67;;;13.30;1.00;;;;;;5053417;28;20217;-64
2022/09/16 08:23:34;;;;;;;6.57;2.80;;;13.20;1.00;;;;;;5053024;28;20258;-61
2022/09/16 08:26:03;;;;;;;4.63;2.40;;;13.30;1.00;;;;;;5053217;28;20257;-61
2022/09/16 08:28:30;;;;;;;6.10;2.00;;;13.60;1.00;;;;;;5052797;28;20246;-60
2022/09/16 08:30:59;;;;;;;4.30;2.10;;;13.80;1.00;;;;;;5053123;28;20601;-59
2022/09/16 08:33:26;;;;;;;4.50;2.50;;;13.80;99.90;;;;;;5052886;28;20623;-60
2022/09/16 08:36:00;;;;;;;4.80;2.60;;;13.90;99.90;;;;;;5053125;28;20245;-61
2022/09/16 08:38:27;;;;;;;4.97;2.10;;;14.00;99.90;;;;;;5053319;28;20271;-64
2022/09/16 08:41:01;;;;;;;5.37;2.07;;;14.10;99.90;;;;;;5052956;28;20259;-62
2022/09/16 08:43:36;;;;;;;5.03;2.07;;;14.30;1.00;;;;;;5053281;28;20201;-61
2022/09/16 08:46:10;;;;;;;8.27;2.10;;;14.50;99.90;;;;;;5052665;28;20236;-65
2022/09/16 08:48:47;;;;;;;4.53;1.70;;;14.70;99.90;;;;;;5053071;28;20735;-66
2022/09/16 08:51:18;;;;;;;8.63;1.73;;;14.70;99.00;;;;;;5052092;28;20770;-62
2022/09/16 08:53:49;;;;;;;2.33;1.50;;;14.90;1.00;;;;;;5052656;28;20986;-63
2022/09/16 08:56:19;;;;;;;2.53;1.60;;;14.80;1.00;;;;;;5052247;28;20240;-66
2022/09/16 08:58:52;;;;;;;2.57;1.30;;;14.70;99.90;;;;;;5052967;28;20643;-66
2022/09/16 09:01:27;;;;;;;2.10;1.13;;;14.70;5.80;;;;;;5052433;28;20295;-64
2022/09/16 09:03:53;;;;;;;4.90;1.30;;;14.80;26.00;;;;;;5052612;28;20671;-65
2022/09/16 09:06:48;;;;;;;3.27;1.20;;;14.70;1.00;;;;;;5052192;28;20233;-59
2022/09/16 09:09:27;;;;;;;2.67;1.20;;;14.80;99.90;;;;;;5052726;28;20260;-63
2022/09/16 09:12:01;;;;;;;5.50;1.43;;;15.00;1.00;;;;;;5052047;28;20217;-63
2022/09/16 09:14:39;;;;;;;6.23;1.60;;;15.20;99.90;;;;;;5052110;28;20268;-63
2022/09/16 09:17:13;;;;;;;2.47;1.50;;;15.20;36.70;;;;;;5052089;28;20873;-61
2022/09/16 09:19:56;;;;;;;5.93;1.40;;;15.30;99.90;;;;;;5052390;28;20772;-65
2022/09/16 09:22:34;;;;;;;2.40;1.10;;;15.40;1.00;;;;;;5069395;28;20244;-64
2022/09/16 09:25:19;;;;;;;4.00;0.83;;;15.40;99.90;;;;;;5073399;28;20202;-64
2022/09/16 09:28:01;;;;;;;2.80;1.20;;;15.40;99.90;;;;;;5056787;28;20264;-64
2022/09/16 09:30:31;;;;;;;3.40;1.00;;;15.40;53.30;;;;;;5051935;28;20201;-63
2022/09/16 09:33:13;;;;;;;7.83;0.90;;;15.40;1.00;;;;;;5052166;28;20264;-61
2022/09/16 09:36:08;;;;;;;4.10;1.00;;;15.60;99.90;;;;;;5051800;28;20237;-59
2022/09/16 09:38:49;;;;;;;3.20;0.70;;;15.90;99.90;;;;;;5048215;28;20650;-61
2022/09/16 09:41:22;;;;;;;2.93;0.57;;;16.00;99.90;;;;;;5036557;28;20212;-57
2022/09/16 09:46:46;;;;;;;2.17;1.00;;;16.00;99.90;;;;;;5028438;28;20228;-60
2022/09/16 09:49:16;;;;;;;4.40;0.70;;;15.80;99.90;;;;;;5040289;28;20210;-60
2022/09/16 09:51:48;;;;;;;1.93;0.60;;;15.70;99.90;;;;;;5052088;28;20676;-62
2022/09/16 09:54:28;;;;;;;6.13;0.90;;;15.70;99.90;;;;;;5052041;28;20237;-60
2022/09/16 09:56:59;;;;;;;3.93;0.80;;;15.70;99.90;;;;;;5051582;28;20236;-60
2022/09/16 09:59:30;;;;;;;3.13;0.80;;;15.70;99.90;;;;;;5052591;28;20201;-62
2022/09/16 10:02:00;;;;;;;0.80;0.40;;;15.90;99.90;;;;;;5052171;28;20210;-60
2022/09/16 10:04:37;;;;;;;2.73;0.57;;;16.30;99.90;;;;;;5051270;28;20615;-61
2022/09/16 10:07:05;;;;;;;2.83;0.60;;;16.10;99.90;;;;;;5050643;28;20225;-62
2022/09/16 10:09:32;;;;;;;3.90;0.77;;;15.90;99.90;;;;;;5050936;28;20267;-62
2022/09/16 10:12:00;;;;;;;2.70;0.70;;;15.90;99.90;;;;;;5051071;28;20605;-63
2022/09/16 10:14:31;;;;;;;1.87;0.50;;;16.00;99.90;;;;;;5051133;28;20229;-63
2022/09/16 10:17:01;;;;;;;3.03;0.60;;;15.90;99.90;;;;;;5050871;28;20225;-65
2022/09/16 10:19:31;;;;;;;4.77;1.27;;;15.80;99.90;;;;;;5050929;28;20249;-62
2022/09/16 10:22:10;;;;;;;2.97;0.70;;;15.90;99.90;;;;;;5051019;28;20770;-61
2022/09/16 10:24:39;;;;;;;2.67;0.60;;;15.70;99.90;;;;;;5050871;28;20205;-62
2022/09/16 10:27:20;;;;;;;4.90;0.80;;;15.60;99.90;;;;;;5051038;28;20295;-60
2022/09/16 10:29:46;;;;;;;1.33;0.60;;;15.50;99.90;;;;;;5050940;28;20291;-60
2022/09/16 10:32:19;;;;;;;9.07;0.87;;;15.60;99.90;;;;;;5051145;28;20209;-61
2022/09/16 10:34:47;;;;;;;1.97;0.50;;;15.80;99.90;;;;;;5050843;28;20275;-64
2022/09/16 10:37:18;;;;;;;4.10;0.70;;;15.90;99.90;;;;;;5050806;28;20580;-65
2022/09/16 10:39:51;;;;;;;2.33;0.70;;;16.10;99.90;;;;;;5050212;28;20216;-63
2022/09/16 10:42:20;;;;;;;3.80;0.60;;;16.00;99.90;;;;;;5051186;28;20267;-64
2022/09/16 10:44:50;;;;;;;3.93;0.87;;;16.20;99.90;;;;;;5034633;28;20206;-63
2022/09/16 10:47:21;;;;;;;2.90;0.70;;;16.40;99.90;;;;;;5030665;28;20316;-65
2022/09/16 10:49:51;;;;;;;1.47;0.53;;;16.70;99.90;;;;;;5031029;28;20210;-65
2022/09/16 10:52:20;;;;;;;2.00;0.60;;;16.80;99.90;;;;;;5030365;28;20620;-64
2022/09/16 10:54:48;;;;;;;3.37;0.90;;;17.10;99.90;;;;;;5031244;28;20263;-63
2022/09/16 10:57:27;;;;;;;4.03;1.00;;;17.20;99.90;;;;;;5030614;28;20223;-63
2022/09/16 10:59:59;;;;;;;4.00;0.77;;;16.90;99.90;;;;;;5031090;28;20584;-63
2022/09/16 11:02:45;;;;;;;3.23;0.70;;;16.30;99.90;;;;;;5030283;28;20264;-64
2022/09/16 11:05:18;;;;;;;2.53;0.70;;;16.00;99.90;;;;;;5031277;28;20228;-62
2022/09/16 11:07:54;;;;;;;4.27;0.80;;;16.10;99.90;;;;;;5030742;28;20206;-62
2022/09/16 11:10:27;;;;;;;1.53;0.80;;;16.00;99.90;;;;;;5031174;28;20565;-63
2022/09/16 11:13:16;;;;;;;4.50;1.27;;;15.80;99.90;;;;;;5030298;28;20743;-62
2022/09/16 11:16:00;;;;;;;3.23;0.60;;;16.10;99.90;;;;;;5034334;28;20304;-62
2022/09/16 11:18:39;;;;;;;2.87;0.67;;;16.10;99.90;;;;;;5034504;28;20209;-62
2022/09/16 11:21:17;;;;;;;4.07;0.70;;;16.30;99.90;;;;;;5035077;28;20279;-67
2022/09/16 11:24:01;;;;;;;2.57;0.70;;;16.30;99.90;;;;;;5034486;28;20641;-65
2022/09/16 11:26:35;;;;;;;2.00;0.80;;;16.50;99.90;;;;;;5051425;28;20255;-62
2022/09/16 11:29:22;;;;;;;5.10;0.87;;;16.40;99.90;;;;;;5054472;28;20213;-62
2022/09/16 11:31:58;;;;;;;1.40;0.77;;;16.40;99.90;;;;;;5054233;28;20210;-63
2022/09/16 11:34:51;;;;;;;2.57;0.80;;;16.40;99.90;;;;;;5054407;28;20201;-63
2022/09/16 11:37:23;;;;;;;2.50;0.50;;;16.30;99.90;;;;;;5054237;28;20221;-63
2022/09/16 11:40:04;;;;;;;3.07;0.60;;;16.30;99.90;;;;;;5054710;28;20598;-66
2022/09/16 11:42:35;;;;;;;2.90;0.60;;;16.40;99.90;;;;;;5054021;28;20209;-68
2022/09/16 11:45:15;;;;;;;4.23;0.77;;;16.70;99.90;;;;;;5054434;28;20251;-65
2022/09/16 11:47:55;;;;;;;3.40;0.80;;;17.00;99.90;;;;;;5051377;28;20210;-64
2022/09/16 11:50:39;;;;;;;2.30;0.80;;;17.30;99.90;;;;;;5034197;28;20206;-64
2022/09/16 11:53:33;;;;;;;1.37;0.40;;;17.40;99.90;;;;;;5033684;28;20245;-63
2022/09/16 11:56:03;;;;;;;4.10;0.80;;;17.30;99.90;;;;;;5026767;28;20759;-59
2022/09/16 11:58:36;;;;;;;4.27;0.83;;;17.40;99.90;;;;;;5033680;28;20206;-60
2022/09/16 12:01:10;;;;;;;2.93;0.70;;;17.60;99.90;;;;;;5041384;28;20213;-60
2022/09/16 12:03:45;;;;;;;4.87;0.80;;;18.10;99.90;;;;;;5053601;28;20209;-64
2022/09/16 12:06:17;;;;;;;5.40;0.80;;;17.90;99.90;;;;;;5053951;28;20633;-64
2022/09/16 12:08:53;;;;;;;3.07;0.70;;;17.70;99.90;;;;;;5053392;28;20597;-62
2022/09/16 12:11:23;;;;;;;3.07;0.63;;;17.70;99.90;;;;;;5053472;28;20232;-62
2022/09/16 12:13:54;;;;;;;3.17;0.73;;;17.70;99.90;;;;;;5053656;28;20271;-60
2022/09/16 12:16:29;;;;;;;2.23;0.60;;;17.60;99.90;;;;;;5053603;28;20316;-61
2022/09/16 12:18:59;;;;;;;3.17;0.80;;;17.50;99.90;;;;;;5053655;28;20208;-60
2022/09/16 12:21:33;;;;;;;2.73;0.43;;;17.10;99.90;;;;;;5053507;28;20217;-61
2022/09/16 12:24:04;;;;;;;2.73;0.50;;;16.80;99.90;;;;;;5054070;28;20264;-62
2022/09/16 12:26:36;;;;;;;1.67;0.40;;;16.40;99.90;;;;;;5052356;28;20630;-67
2022/09/16 12:29:08;;;;;;;0.97;0.27;;;16.70;99.90;;;;;;5053535;28;20268;-67
2022/09/16 12:31:40;;;;;;;0.83;0.40;;;16.90;99.90;;;;;;5052844;28;20672;-67
2022/09/16 12:34:11;;;;;;;2.50;0.43;;;17.00;99.90;;;;;;5054603;28;20209;-64
2022/09/16 12:36:43;;;;;;;2.87;0.47;;;17.00;99.90;;;;;;5052634;28;20233;-66
2022/09/16 12:39:11;;;;;;;2.80;0.60;;;17.20;99.90;;;;;;5053467;28;20205;-62
2022/09/16 12:41:57;;;;;;;2.07;0.60;;;17.30;99.90;;;;;;5052882;28;20209;-63
2022/09/16 12:44:42;;;;;;;0.87;0.50;;;17.40;99.90;;;;;;5055370;28;20209;-62
2022/09/16 12:47:34;;;;;;;0.93;0.40;;;17.40;99.90;;;;;;5053450;28;20261;-62
2022/09/16 12:50:19;;;;;;;3.23;0.67;;;17.30;99.90;;;;;;5053930;28;20205;-62
2022/09/16 12:53:09;;;;;;;0.70;0.20;;;16.60;99.90;;;;;;5052349;28;20209;-62
2022/09/16 12:55:50;;;;;;;1.83;0.40;;;15.40;99.90;;;;;;5052812;28;20284;-63
2022/09/16 12:58:59;;;;;;;2.07;0.60;;;15.20;99.90;;;;;;5052610;28;20267;-63
2022/09/16 13:01:29;;;;;;;0.60;0.50;;;13.40;99.90;;;;;;5010068;28;20293;-64
2022/09/16 13:03:59;;;;;;;2.27;0.70;;;13.20;99.90;;;;;;5010166;28;20211;-63
2022/09/16 13:06:28;;;;;;;4.50;0.90;;;13.00;1.00;;;;;;5033650;28;20225;-67
2022/09/16 13:08:59;;;;;;;2.33;0.73;;;12.60;99.90;;;;;;5052137;28;20210;-65
2022/09/16 13:11:29;;;;;;;1.87;0.90;;;12.40;1.00;;;;;;5052402;28;20631;-62
2022/09/16 13:13:58;;;;;;;2.73;0.90;;;12.50;99.90;;;;;;5052598;28;20240;-62